Time;durP1;ratioP1;P1;durP2;ratioP2;P2;SDS_P1;SDS_P2;PMS_P1;PMS_P2;Temp;Humidity;BMP_temperature;BMP_pressure;BME280_temperature;BME280_humidity;BME280_pressure;Samples;Min_cycle;Max_cycle;Signal;HPM_P1;HPM_P2
2021/06/05 00:00:22;;;;;;;7.88;6.82;;;16.30;99.90;;;;;;4999540;28;20282;-90
2021/06/05 00:02:49;;;;;;;7.50;6.82;;;16.30;99.90;;;;;;5016545;28;20312;-90
2021/06/05 00:05:16;;;;;;;7.25;6.63;;;16.30;99.90;;;;;;5007939;28;20223;-90
2021/06/05 00:07:42;;;;;;;8.65;7.57;;;16.20;99.90;;;;;;5004189;28;20211;-91
2021/06/05 00:10:16;;;;;;;6.88;6.28;;;16.10;99.90;;;;;;4997595;28;20236;-90
2021/06/05 00:12:43;;;;;;;8.25;7.25;;;16.10;99.90;;;;;;5013544;28;20261;-91
2021/06/05 00:15:13;;;;;;;8.05;7.25;;;16.00;99.90;;;;;;5006784;28;20235;-91
2021/06/05 00:17:39;;;;;;;8.38;7.68;;;16.00;99.90;;;;;;4998474;28;20269;-92
2021/06/05 00:20:08;;;;;;;7.72;7.03;;;16.00;99.90;;;;;;4998348;28;20235;-90
2021/06/05 00:22:35;;;;;;;8.23;7.47;;;15.90;99.90;;;;;;5011831;28;20663;-91
2021/06/05 00:25:01;;;;;;;8.10;7.35;;;15.90;99.90;;;;;;4998059;28;20580;-90
2021/06/05 00:27:29;;;;;;;7.90;7.20;;;15.90;99.90;;;;;;5012235;28;20203;-91
2021/06/05 00:29:56;;;;;;;8.50;7.70;;;15.90;99.90;;;;;;4982048;28;20228;-91
2021/06/05 00:32:23;;;;;;;8.02;7.32;;;16.00;99.90;;;;;;5017339;28;20199;-91
2021/06/05 00:34:49;;;;;;;8.85;8.02;;;16.00;99.90;;;;;;5012723;28;20231;-90
2021/06/05 00:37:15;;;;;;;9.55;8.15;;;16.00;99.90;;;;;;5000120;28;20674;-91
2021/06/05 00:39:43;;;;;;;8.63;7.82;;;16.00;99.90;;;;;;5002062;28;20718;-91
2021/06/05 00:42:10;;;;;;;8.38;7.60;;;15.90;99.90;;;;;;4996742;28;20208;-91
2021/06/05 00:44:37;;;;;;;8.98;8.13;;;16.00;99.90;;;;;;4995674;28;20235;-92
2021/06/05 00:47:04;;;;;;;8.88;8.10;;;16.00;99.90;;;;;;4999613;28;20202;-91
2021/06/05 00:49:31;;;;;;;9.13;8.32;;;15.90;99.90;;;;;;5008953;28;20232;-91
2021/06/05 00:51:57;;;;;;;10.30;9.30;;;15.90;99.90;;;;;;5010002;28;20231;-92
2021/06/05 00:54:24;;;;;;;9.70;8.73;;;15.90;99.90;;;;;;4995857;28;20285;-91
2021/06/05 00:56:53;;;;;;;9.90;8.93;;;15.90;99.90;;;;;;4996483;28;20526;-90
2021/06/05 00:59:21;;;;;;;10.15;9.15;;;16.00;99.90;;;;;;5005767;28;20229;-92
2021/06/05 01:01:49;;;;;;;9.32;8.52;;;15.90;99.90;;;;;;4996366;28;20670;-91
2021/06/05 01:04:16;;;;;;;9.85;8.90;;;15.90;99.90;;;;;;4996049;28;20227;-91
2021/06/05 01:06:50;;;;;;;9.73;8.88;;;16.00;99.90;;;;;;4995817;28;20671;-91
2021/06/05 01:09:24;;;;;;;10.85;9.50;;;15.90;99.90;;;;;;5007667;28;20230;-91
2021/06/05 01:11:55;;;;;;;9.77;8.88;;;15.80;99.90;;;;;;4996083;28;20652;-91
2021/06/05 01:14:29;;;;;;;9.65;8.75;;;15.80;99.90;;;;;;5005391;28;20576;-91
2021/06/05 01:17:01;;;;;;;9.23;8.32;;;15.70;99.90;;;;;;4996242;28;20206;-91
2021/06/05 01:19:44;;;;;;;8.80;8.00;;;15.80;99.90;;;;;;4996256;28;20235;-91
2021/06/05 01:22:25;;;;;;;7.38;6.60;;;15.90;99.90;;;;;;4999527;28;20195;-91
2021/06/05 01:25:10;;;;;;;11.30;6.70;;;15.90;99.90;;;;;;4995299;28;20231;-91
2021/06/05 01:27:44;;;;;;;6.70;6.07;;;15.80;99.90;;;;;;4999716;28;20219;-90
2021/06/05 01:30:16;;;;;;;7.07;6.38;;;15.80;99.90;;;;;;4995414;28;20228;-91
2021/06/05 01:32:43;;;;;;;7.60;6.90;;;15.80;99.90;;;;;;4995428;28;20656;-90
2021/06/05 01:35:12;;;;;;;7.50;6.00;;;15.90;99.90;;;;;;4995177;28;20774;-90
2021/06/05 01:37:41;;;;;;;6.07;5.57;;;15.80;99.90;;;;;;4985441;28;20647;-91
2021/06/05 01:40:10;;;;;;;6.50;5.40;;;15.80;99.90;;;;;;4995176;28;20577;-91
2021/06/05 01:42:39;;;;;;;5.80;5.30;;;15.90;99.90;;;;;;4995668;28;20200;-91
2021/06/05 01:45:09;;;;;;;7.72;5.35;;;15.90;99.90;;;;;;5006421;28;20714;-92
2021/06/05 01:47:36;;;;;;;5.20;4.72;;;15.90;99.90;;;;;;4996592;28;20656;-91
2021/06/05 01:50:04;;;;;;;5.53;4.95;;;16.00;99.90;;;;;;4995186;28;20278;-91
2021/06/05 01:52:34;;;;;;;4.70;4.30;;;15.90;99.90;;;;;;5011641;28;20203;-90
2021/06/05 01:55:04;;;;;;;7.10;4.97;;;15.90;99.90;;;;;;4998627;28;20235;-91
2021/06/05 01:57:33;;;;;;;5.22;4.75;;;15.80;99.90;;;;;;4995416;28;20230;-91
2021/06/05 02:00:02;;;;;;;5.32;4.80;;;15.70;99.90;;;;;;4994755;28;20286;-92
2021/06/05 02:02:28;;;;;;;5.55;4.85;;;15.70;99.90;;;;;;4995553;28;20207;-91
2021/06/05 02:04:54;;;;;;;8.20;5.10;;;15.70;99.90;;;;;;4994259;28;20228;-92
2021/06/05 02:07:22;;;;;;;5.63;5.13;;;15.70;99.90;;;;;;5008760;28;20671;-91
2021/06/05 02:09:50;;;;;;;6.70;5.30;;;15.70;99.90;;;;;;4994553;28;20298;-90
2021/06/05 02:12:23;;;;;;;6.50;5.85;;;15.70;99.90;;;;;;4985847;28;20207;-91
2021/06/05 02:14:54;;;;;;;6.10;5.60;;;15.70;99.90;;;;;;5008385;28;20222;-91
2021/06/05 02:17:23;;;;;;;7.75;6.15;;;15.60;99.90;;;;;;4998585;28;20196;-91
2021/06/05 02:19:55;;;;;;;6.38;5.70;;;15.60;99.90;;;;;;4996374;28;20216;-92
2021/06/05 02:22:24;;;;;;;6.93;6.32;;;15.60;99.90;;;;;;4999455;28;20199;-91
2021/06/05 02:24:56;;;;;;;6.55;5.95;;;15.50;99.90;;;;;;4996960;28;20562;-91
2021/06/05 02:27:27;;;;;;;6.80;6.20;;;15.50;99.90;;;;;;4989866;28;20207;-90
2021/06/05 02:29:55;;;;;;;7.20;6.50;;;15.50;99.90;;;;;;4995992;28;20223;-92
2021/06/05 02:32:27;;;;;;;7.07;6.38;;;15.50;99.90;;;;;;5010787;28;20203;-94
2021/06/05 02:34:55;;;;;;;7.55;6.85;;;15.40;99.90;;;;;;5008694;28;20234;-90
2021/06/05 02:37:25;;;;;;;8.27;7.47;;;15.40;99.90;;;;;;4999507;28;20291;-91
2021/06/05 02:39:55;;;;;;;8.20;7.45;;;15.30;99.90;;;;;;5006889;28;20219;-91
2021/06/05 02:42:22;;;;;;;8.88;8.07;;;15.40;99.90;;;;;;5003849;28;20208;-91
2021/06/05 02:44:51;;;;;;;9.18;8.38;;;15.40;99.90;;;;;;5001107;28;20294;-91
2021/06/05 02:47:19;;;;;;;8.68;7.97;;;15.30;99.90;;;;;;5003306;28;20207;-92
2021/06/05 02:49:48;;;;;;;9.93;8.93;;;15.30;99.90;;;;;;5007912;28;20281;-92
2021/06/05 02:52:29;;;;;;;10.45;8.82;;;15.30;99.90;;;;;;4991889;28;20192;-92
2021/06/05 02:54:56;;;;;;;10.55;9.27;;;15.30;99.90;;;;;;4998650;28;20222;-91
2021/06/05 02:57:24;;;;;;;10.30;9.30;;;15.30;99.90;;;;;;4993620;28;20645;-92
2021/06/05 02:59:51;;;;;;;11.60;9.95;;;15.30;99.90;;;;;;5007649;28;20722;-90
2021/06/05 03:02:17;;;;;;;12.32;10.40;;;15.30;99.90;;;;;;4994749;28;20208;-92
2021/06/05 03:04:44;;;;;;;11.15;10.15;;;15.30;99.90;;;;;;5001724;28;20262;-92
2021/06/05 03:07:12;;;;;;;11.35;10.25;;;15.30;99.90;;;;;;4995288;28;20199;-91
2021/06/05 03:09:38;;;;;;;13.00;11.07;;;15.30;99.90;;;;;;4990718;28;20231;-92
2021/06/05 03:12:08;;;;;;;12.00;10.18;;;15.30;99.90;;;;;;4992074;28;20200;-92
2021/06/05 03:14:36;;;;;;;11.07;10.02;;;15.40;99.90;;;;;;4991282;28;20227;-91
2021/06/05 03:17:03;;;;;;;12.07;10.75;;;15.40;99.90;;;;;;4996321;28;20203;-91
2021/06/05 03:19:29;;;;;;;11.30;10.30;;;15.50;99.90;;;;;;4997749;28;20235;-91
2021/06/05 03:21:55;;;;;;;11.68;10.35;;;15.50;99.90;;;;;;4993714;28;20836;-91
2021/06/05 03:24:23;;;;;;;10.80;9.70;;;15.50;99.90;;;;;;4997178;28;20236;-91
2021/06/05 03:26:50;;;;;;;10.80;9.73;;;15.50;99.90;;;;;;4998213;28;20215;-90
2021/06/05 03:29:16;;;;;;;12.45;10.10;;;15.40;99.90;;;;;;5002244;28;20687;-91
2021/06/05 03:31:43;;;;;;;10.95;9.85;;;15.50;99.90;;;;;;4991472;28;20200;-92
2021/06/05 03:34:09;;;;;;;11.57;10.18;;;15.50;99.90;;;;;;4999280;28;20571;-92
2021/06/05 03:36:36;;;;;;;11.88;9.95;;;15.40;99.90;;;;;;4991864;28;20204;-91
2021/06/05 03:39:04;;;;;;;13.20;10.23;;;15.40;99.90;;;;;;5005402;28;20539;-91
2021/06/05 03:41:32;;;;;;;11.30;9.80;;;15.40;99.90;;;;;;4999198;28;20558;-92
2021/06/05 03:43:59;;;;;;;10.90;9.80;;;15.40;99.90;;;;;;5009125;28;20311;-91
2021/06/05 03:46:25;;;;;;;12.45;9.30;;;15.30;99.90;;;;;;4999082;28;20224;-91
2021/06/05 03:48:51;;;;;;;9.70;8.70;;;15.40;99.90;;;;;;5003590;28;20643;-91
2021/06/05 03:51:18;;;;;;;10.50;9.43;;;15.40;99.90;;;;;;5005559;28;20278;-92
2021/06/05 03:53:44;;;;;;;10.30;9.20;;;15.40;99.90;;;;;;5010737;28;20227;-92
2021/06/05 03:56:11;;;;;;;11.00;9.18;;;15.40;99.90;;;;;;5012998;28;20231;-91
2021/06/05 03:58:42;;;;;;;10.18;9.00;;;15.40;99.90;;;;;;5000277;28;20195;-94
2021/06/05 04:01:12;;;;;;;9.65;8.75;;;15.40;99.90;;;;;;5007054;28;20233;-91
2021/06/05 04:03:38;;;;;;;9.10;8.30;;;15.40;99.90;;;;;;4998575;28;20266;-92
2021/06/05 04:06:06;;;;;;;9.80;8.75;;;15.40;99.90;;;;;;5004238;28;20231;-91
2021/06/05 04:08:32;;;;;;;8.57;7.68;;;15.40;99.90;;;;;;5002933;28;20218;-91
2021/06/05 04:10:59;;;;;;;9.80;8.30;;;15.40;99.90;;;;;;5005682;28;20289;-91
2021/06/05 04:13:25;;;;;;;8.60;7.80;;;15.40;99.90;;;;;;5007290;28;20199;-91
2021/06/05 04:15:53;;;;;;;10.35;8.15;;;15.40;99.90;;;;;;4996693;28;20220;-91
2021/06/05 04:18:22;;;;;;;10.20;7.70;;;15.40;99.90;;;;;;5007011;28;20722;-92
2021/06/05 04:20:48;;;;;;;7.82;7.07;;;15.40;99.90;;;;;;5005405;28;20238;-92
2021/06/05 04:23:15;;;;;;;8.02;6.88;;;15.40;99.90;;;;;;5008859;28;20199;-92
2021/06/05 04:25:42;;;;;;;10.60;7.38;;;15.50;99.90;;;;;;5011620;28;20230;-92
2021/06/05 04:28:11;;;;;;;8.07;7.18;;;15.50;99.90;;;;;;4995038;28;20558;-92
2021/06/05 04:30:38;;;;;;;7.30;6.60;;;15.50;99.90;;;;;;4995864;28;20263;-91
2021/06/05 04:33:07;;;;;;;9.18;7.03;;;15.60;99.90;;;;;;5012530;28;20295;-91
2021/06/05 04:35:33;;;;;;;8.77;6.93;;;15.60;99.60;;;;;;5000133;28;20223;-90
2021/06/05 04:38:00;;;;;;;8.25;7.13;;;15.70;99.50;;;;;;5010765;28;20204;-90
2021/06/05 04:40:28;;;;;;;6.90;6.28;;;15.70;99.40;;;;;;5003160;28;20238;-90
2021/06/05 04:42:54;;;;;;;6.70;5.80;;;15.80;99.40;;;;;;5000736;28;20214;-90
2021/06/05 04:45:21;;;;;;;6.90;6.20;;;15.80;98.90;;;;;;5000437;28;20266;-90
2021/06/05 04:47:48;;;;;;;6.47;5.88;;;15.80;98.70;;;;;;4999685;28;20208;-91
2021/06/05 04:50:18;;;;;;;7.18;5.97;;;15.90;98.60;;;;;;5009332;28;20232;-90
2021/06/05 04:52:45;;;;;;;7.22;6.32;;;15.90;98.60;;;;;;5006117;28;20191;-90
2021/06/05 04:55:13;;;;;;;6.57;5.43;;;16.00;98.40;;;;;;4987914;28;20310;-90
2021/06/05 04:57:39;;;;;;;5.90;5.32;;;16.10;98.20;;;;;;5008118;28;20251;-90
2021/06/05 05:00:08;;;;;;;6.22;5.20;;;16.20;97.90;;;;;;5011564;28;20222;-90
2021/06/05 05:02:35;;;;;;;5.85;5.18;;;16.20;97.70;;;;;;5005079;28;20204;-90
2021/06/05 05:05:02;;;;;;;5.65;4.88;;;16.30;97.40;;;;;;5003955;28;20298;-90
2021/06/05 05:07:29;;;;;;;5.72;5.10;;;16.20;97.20;;;;;;5008684;28;20214;-90
2021/06/05 05:09:56;;;;;;;4.78;4.25;;;16.30;97.20;;;;;;5004284;28;20226;-90
2021/06/05 05:12:22;;;;;;;6.78;4.25;;;16.30;97.20;;;;;;5015795;28;20648;-91
2021/06/05 05:14:49;;;;;;;5.95;4.20;;;16.40;97.20;;;;;;5016897;28;20286;-90
2021/06/05 05:17:15;;;;;;;4.70;4.13;;;16.60;96.90;;;;;;5003145;28;20200;-91
2021/06/05 05:19:42;;;;;;;4.60;3.92;;;16.60;96.20;;;;;;5008984;28;20243;-92
2021/06/05 05:22:09;;;;;;;4.00;3.60;;;16.70;96.00;;;;;;5012796;28;20214;-90
2021/06/05 05:24:36;;;;;;;4.68;3.58;;;16.70;95.90;;;;;;5006301;28;20621;-91
2021/06/05 05:27:03;;;;;;;3.97;3.05;;;16.80;95.30;;;;;;5001808;28;20200;-90
2021/06/05 05:29:29;;;;;;;3.72;3.15;;;16.80;94.90;;;;;;5001576;28;20240;-92
2021/06/05 05:31:56;;;;;;;3.75;3.35;;;16.90;94.90;;;;;;5010457;28;20210;-91
2021/06/05 05:34:22;;;;;;;5.40;3.10;;;17.00;94.90;;;;;;5004324;28;20234;-90
2021/06/05 05:36:49;;;;;;;4.03;3.30;;;17.10;94.70;;;;;;5011017;28;20214;-91
2021/06/05 05:39:18;;;;;;;6.22;2.90;;;17.10;94.40;;;;;;5002356;28;20239;-90
2021/06/05 05:41:48;;;;;;;4.82;3.10;;;17.20;94.20;;;;;;5012007;28;20279;-92
2021/06/05 05:44:15;;;;;;;3.25;2.60;;;17.30;93.50;;;;;;5013174;28;20207;-90
2021/06/05 05:46:41;;;;;;;3.25;2.58;;;17.50;93.40;;;;;;4989352;28;20199;-92
2021/06/05 05:49:08;;;;;;;3.33;2.80;;;17.90;92.80;;;;;;5001203;28;20200;-90
2021/06/05 05:51:34;;;;;;;2.95;2.40;;;18.30;91.40;;;;;;5002197;28;20666;-90
2021/06/05 05:54:01;;;;;;;3.42;2.45;;;18.40;90.80;;;;;;5000620;28;20286;-91
2021/06/05 05:56:30;;;;;;;4.15;2.40;;;18.40;90.30;;;;;;5001687;28;20191;-90
2021/06/05 05:58:58;;;;;;;3.78;2.20;;;18.30;90.70;;;;;;5009961;28;20196;-91
2021/06/05 06:01:26;;;;;;;4.07;2.45;;;18.30;90.80;;;;;;4986588;28;20208;-90
2021/06/05 06:03:55;;;;;;;5.45;2.20;;;18.20;90.90;;;;;;4999812;28;20291;-91
2021/06/05 06:06:22;;;;;;;2.25;2.05;;;18.20;90.70;;;;;;5009113;28;20235;-91
2021/06/05 06:08:50;;;;;;;2.78;1.95;;;18.30;90.80;;;;;;5009050;28;20207;-90
2021/06/05 06:11:16;;;;;;;3.60;2.28;;;18.30;90.20;;;;;;5018803;28;20222;-91
2021/06/05 06:13:44;;;;;;;6.15;2.10;;;18.30;90.10;;;;;;5001824;28;20199;-91
2021/06/05 06:16:14;;;;;;;4.20;2.08;;;18.40;90.20;;;;;;4998532;28;20223;-91
2021/06/05 06:18:41;;;;;;;2.13;1.92;;;18.40;89.90;;;;;;5006976;28;20200;-90
2021/06/05 06:21:09;;;;;;;3.15;2.15;;;18.40;90.00;;;;;;5002405;28;20767;-90
2021/06/05 06:23:37;;;;;;;3.05;2.13;;;18.50;89.60;;;;;;5006337;28;20234;-91
2021/06/05 06:26:07;;;;;;;2.00;1.90;;;18.60;89.40;;;;;;5010541;28;20228;-90
2021/06/05 06:28:36;;;;;;;2.20;2.00;;;18.60;88.30;;;;;;4997194;28;20643;-91
2021/06/05 06:31:04;;;;;;;2.58;1.90;;;18.60;88.90;;;;;;4999046;28;20223;-91
2021/06/05 06:33:32;;;;;;;1.95;1.70;;;18.60;88.60;;;;;;4997546;28;20196;-92
2021/06/05 06:35:59;;;;;;;3.10;1.88;;;18.70;87.90;;;;;;5006687;28;20231;-91
2021/06/05 06:38:28;;;;;;;3.90;1.70;;;18.80;87.20;;;;;;5004714;28;20328;-91
2021/06/05 06:40:54;;;;;;;3.13;1.52;;;19.00;87.30;;;;;;5001808;28;20238;-92
2021/06/05 06:43:23;;;;;;;2.75;1.60;;;19.00;85.00;;;;;;5004895;28;20200;-88
2021/06/05 06:45:50;;;;;;;3.55;1.70;;;19.10;82.20;;;;;;5008528;28;20241;-88
2021/06/05 06:48:17;;;;;;;1.50;1.40;;;19.20;82.50;;;;;;5004017;28;20268;-88
2021/06/05 06:50:45;;;;;;;2.25;1.42;;;19.20;82.30;;;;;;4998662;28;20259;-89
2021/06/05 06:53:11;;;;;;;2.67;1.70;;;19.30;81.90;;;;;;5008217;28;20218;-88
2021/06/05 06:55:37;;;;;;;2.53;1.40;;;19.30;81.90;;;;;;5019505;28;20703;-89
2021/06/05 06:58:04;;;;;;;1.92;1.58;;;19.50;80.50;;;;;;5015633;28;20290;-89
2021/06/05 07:00:33;;;;;;;2.65;1.38;;;19.50;79.80;;;;;;5014554;28;20238;-90
2021/06/05 07:03:00;;;;;;;2.90;1.40;;;19.60;78.00;;;;;;5009860;28;20207;-89
2021/06/05 07:05:26;;;;;;;2.55;1.27;;;19.70;75.60;;;;;;5014205;28;20234;-88
2021/06/05 07:08:06;;;;;;;2.35;1.63;;;19.80;78.00;;;;;;5006471;28;20255;-88
2021/06/05 07:10:32;;;;;;;3.72;1.52;;;20.20;76.70;;;;;;5019712;28;20233;-88
2021/06/05 07:13:00;;;;;;;4.72;1.52;;;20.50;72.40;;;;;;5019992;28;20208;-87
2021/06/05 07:15:27;;;;;;;1.63;1.35;;;20.70;71.50;;;;;;5009315;28;20227;-87
2021/06/05 07:17:53;;;;;;;3.25;1.50;;;21.40;67.00;;;;;;5018335;28;20218;-90
2021/06/05 07:20:19;;;;;;;2.55;1.42;;;22.40;58.10;;;;;;5019535;28;20291;-87
2021/06/05 07:22:46;;;;;;;2.60;1.67;;;23.40;54.50;;;;;;5020065;28;20261;-86
2021/06/05 07:25:14;;;;;;;1.92;1.25;;;24.40;51.00;;;;;;5007983;28;20228;-87
2021/06/05 07:27:41;;;;;;;2.05;1.50;;;24.30;49.10;;;;;;5009937;28;20206;-88
2021/06/05 07:30:09;;;;;;;2.65;1.50;;;24.00;49.70;;;;;;5003766;28;20302;-86
2021/06/05 07:32:35;;;;;;;2.22;1.50;;;23.70;51.00;;;;;;5015138;28;20207;-87
2021/06/05 07:35:02;;;;;;;4.47;1.40;;;23.80;50.40;;;;;;5020198;28;20282;-86
2021/06/05 07:37:29;;;;;;;6.03;1.52;;;23.60;51.80;;;;;;5016302;28;20222;-87
2021/06/05 07:39:55;;;;;;;3.40;1.63;;;23.20;51.60;;;;;;5011520;28;20255;-90
2021/06/05 07:42:23;;;;;;;4.45;1.70;;;22.70;53.00;;;;;;5014104;28;20206;-90
2021/06/05 07:44:50;;;;;;;5.15;1.90;;;22.50;54.50;;;;;;5014104;28;20235;-89
2021/06/05 07:47:17;;;;;;;2.35;1.58;;;22.40;54.70;;;;;;5015795;28;20202;-89
2021/06/05 07:49:43;;;;;;;4.22;1.65;;;22.40;55.80;;;;;;5019051;28;20238;-90
2021/06/05 07:52:12;;;;;;;1.40;1.30;;;22.60;57.20;;;;;;5019987;28;20201;-89
2021/06/05 07:54:39;;;;;;;4.43;1.55;;;22.90;53.60;;;;;;5018672;28;20231;-89
2021/06/05 07:57:05;;;;;;;1.38;1.27;;;22.90;52.70;;;;;;5023778;28;20238;-87
2021/06/05 07:59:33;;;;;;;2.88;1.33;;;22.90;52.30;;;;;;5016226;28;20231;-88
2021/06/05 08:01:59;;;;;;;4.93;1.52;;;22.90;49.40;;;;;;5016007;28;20668;-88
2021/06/05 08:04:26;;;;;;;4.22;1.50;;;22.70;52.20;;;;;;5015632;28;20226;-89
2021/06/05 08:06:55;;;;;;;1.95;1.50;;;22.80;52.90;;;;;;5008584;28;20210;-88
2021/06/05 08:09:22;;;;;;;1.60;1.50;;;23.00;49.50;;;;;;5011570;28;20730;-88
2021/06/05 08:11:48;;;;;;;3.75;1.70;;;22.90;49.50;;;;;;5015334;28;20208;-90
2021/06/05 08:14:15;;;;;;;2.28;1.35;;;23.10;51.00;;;;;;5019003;28;20205;-88
2021/06/05 08:16:42;;;;;;;3.85;1.80;;;23.60;49.60;;;;;;5007022;28;20200;-88
2021/06/05 08:19:14;;;;;;;2.35;1.58;;;24.00;50.50;;;;;;4997660;28;20203;-87
2021/06/05 08:21:42;;;;;;;2.33;1.50;;;25.60;43.30;;;;;;5008435;28;20437;-86
2021/06/05 08:24:09;;;;;;;3.45;1.75;;;27.60;37.90;;;;;;5010002;28;20223;-87
2021/06/05 08:26:36;;;;;;;3.08;1.80;;;29.50;32.50;;;;;;5006968;28;20207;-86
2021/06/05 08:29:02;;;;;;;2.25;1.95;;;30.90;29.20;;;;;;5002409;28;20208;-87
2021/06/05 08:31:29;;;;;;;3.05;1.70;;;31.70;27.40;;;;;;4994090;28;20203;-88
2021/06/05 08:33:57;;;;;;;1.90;1.80;;;32.50;25.30;;;;;;5008917;28;20203;-88
2021/06/05 08:36:26;;;;;;;2.10;1.90;;;33.00;24.50;;;;;;5002457;28;20223;-88
2021/06/05 08:38:53;;;;;;;2.45;2.20;;;34.10;22.00;;;;;;5002806;28;20199;-87
2021/06/05 08:41:24;;;;;;;4.68;2.60;;;34.30;20.10;;;;;;5005491;28;20230;-88
2021/06/05 08:43:54;;;;;;;3.53;2.28;;;34.20;20.00;;;;;;5005066;28;20261;-88
2021/06/05 08:46:23;;;;;;;4.07;2.10;;;33.60;20.10;;;;;;4999896;28;20223;-87
2021/06/05 08:48:51;;;;;;;2.90;2.13;;;33.30;21.40;;;;;;5013075;28;20198;-88
2021/06/05 08:51:27;;;;;;;5.15;2.42;;;33.00;22.80;;;;;;5007551;28;20242;-87
2021/06/05 08:53:56;;;;;;;2.15;1.92;;;33.20;20.90;;;;;;5005308;28;20249;-86
2021/06/05 08:56:28;;;;;;;2.53;2.25;;;33.70;19.60;;;;;;5013735;28;20226;-88
2021/06/05 08:58:59;;;;;;;2.55;2.17;;;33.70;18.50;;;;;;5014249;28;20199;-88
2021/06/05 09:01:33;;;;;;;3.50;2.22;;;34.00;18.60;;;;;;5008821;28;20223;-88
2021/06/05 09:04:03;;;;;;;3.22;2.10;;;32.80;19.60;;;;;;5013679;28;20618;-88
2021/06/05 09:06:38;;;;;;;2.10;1.98;;;32.50;20.10;;;;;;5010092;28;20210;-88
2021/06/05 09:09:06;;;;;;;2.75;2.00;;;33.30;20.30;;;;;;5022571;28;20563;-88
2021/06/05 09:11:33;;;;;;;2.97;2.08;;;34.20;17.80;;;;;;5015496;28;20258;-87
2021/06/05 09:14:00;;;;;;;2.80;2.50;;;36.00;16.20;;;;;;5016144;28;20231;-88
2021/06/05 09:16:46;;;;;;;2.58;2.38;;;37.00;15.30;;;;;;5017759;28;20222;-88
2021/06/05 09:19:28;;;;;;;2.97;2.78;;;38.00;15.20;;;;;;5022652;28;20228;-87
2021/06/05 09:22:14;;;;;;;3.72;2.80;;;37.60;15.50;;;;;;5020316;28;20203;-88
2021/06/05 09:24:45;;;;;;;5.43;3.15;;;37.50;15.10;;;;;;5027601;28;20753;-88
2021/06/05 09:27:17;;;;;;;4.90;2.78;;;35.80;18.10;;;;;;5022479;28;20248;-87
2021/06/05 09:29:54;;;;;;;4.63;2.28;;;34.80;19.00;;;;;;5014578;28;20218;-87
2021/06/05 09:32:23;;;;;;;3.75;2.35;;;33.60;19.50;;;;;;5031429;28;20227;-88
2021/06/05 09:34:52;;;;;;;4.35;2.30;;;32.40;22.60;;;;;;5016764;28;20227;-88
2021/06/05 09:37:36;;;;;;;2.08;1.95;;;32.40;24.20;;;;;;5018190;28;20203;-88
2021/06/05 09:40:25;;;;;;;2.25;2.00;;;32.80;19.40;;;;;;5023858;28;20916;-87
2021/06/05 09:42:56;;;;;;;2.40;2.20;;;33.10;20.90;;;;;;5023787;28;20206;-88
2021/06/05 09:45:31;;;;;;;1.98;1.73;;;32.40;21.30;;;;;;5021069;28;20230;-88
2021/06/05 09:48:21;;;;;;;2.30;2.10;;;32.00;22.10;;;;;;5024759;28;20209;-87
2021/06/05 09:50:48;;;;;;;1.92;1.73;;;31.50;22.70;;;;;;5028745;28;20286;-87
2021/06/05 09:53:20;;;;;;;2.00;1.80;;;32.00;21.20;;;;;;5025414;28;20211;-88
2021/06/05 09:55:47;;;;;;;2.60;2.08;;;33.60;18.40;;;;;;5026643;28;20233;-87
2021/06/05 09:58:33;;;;;;;2.22;2.03;;;34.80;19.00;;;;;;5026307;28;20198;-87
2021/06/05 10:01:14;;;;;;;3.53;2.17;;;34.90;17.90;;;;;;5024774;28;20226;-88
2021/06/05 10:03:40;;;;;;;1.90;1.80;;;34.40;18.80;;;;;;5017561;28;20642;-87
2021/06/05 10:06:19;;;;;;;3.13;2.10;;;33.20;18.20;;;;;;5025281;28;20225;-87
2021/06/05 10:08:48;;;;;;;2.42;2.17;;;32.30;20.00;;;;;;5004474;28;20261;-87
2021/06/05 10:11:21;;;;;;;1.90;1.80;;;32.40;22.80;;;;;;5011316;28;20223;-88
2021/06/05 10:13:56;;;;;;;2.20;2.00;;;32.70;21.40;;;;;;5012313;28;20229;-87
2021/06/05 10:16:24;;;;;;;2.70;2.00;;;33.00;19.40;;;;;;5013089;28;20222;-88
2021/06/05 10:19:02;;;;;;;2.13;2.03;;;33.70;18.50;;;;;;5019108;28;20570;-87
2021/06/05 10:21:35;;;;;;;2.17;1.98;;;33.70;18.50;;;;;;5013398;28;20269;-87
2021/06/05 10:24:05;;;;;;;2.78;1.92;;;33.90;18.60;;;;;;5020909;28;20203;-88
2021/06/05 10:26:36;;;;;;;2.22;2.03;;;34.00;18.60;;;;;;5016352;28;20218;-87
2021/06/05 10:29:16;;;;;;;1.90;1.80;;;33.60;18.40;;;;;;5011702;28;20203;-87
2021/06/05 10:31:43;;;;;;;3.45;2.08;;;32.50;18.70;;;;;;5015204;28;20650;-87
2021/06/05 10:34:14;;;;;;;2.25;1.85;;;31.60;22.00;;;;;;5012561;28;20635;-87
2021/06/05 10:36:45;;;;;;;2.75;1.65;;;30.60;20.60;;;;;;5010409;28;20210;-87
2021/06/05 10:39:15;;;;;;;1.60;1.50;;;29.70;23.20;;;;;;5007398;28;20196;-88
2021/06/05 10:41:44;;;;;;;3.40;1.60;;;28.80;26.90;;;;;;5020701;28;20198;-87
2021/06/05 10:44:11;;;;;;;1.60;1.50;;;28.10;27.10;;;;;;5018791;28;20675;-87
2021/06/05 10:46:54;;;;;;;1.58;1.35;;;27.20;28.20;;;;;;5011650;28;20266;-88
2021/06/05 10:49:31;;;;;;;2.72;1.70;;;27.40;27.70;;;;;;5004244;28;20670;-87
2021/06/05 10:52:07;;;;;;;1.65;1.55;;;27.90;31.40;;;;;;5014453;28;20214;-87
2021/06/05 10:54:43;;;;;;;2.35;1.40;;;28.20;28.90;;;;;;5023135;28;20230;-87
2021/06/05 10:57:34;;;;;;;2.33;1.40;;;28.70;25.60;;;;;;5012828;28;20607;-88
2021/06/05 11:00:02;;;;;;;2.10;1.38;;;28.80;26.90;;;;;;5013883;28;20278;-87
2021/06/05 11:02:37;;;;;;;2.50;1.50;;;28.50;26.70;;;;;;5014136;28;20220;-87
2021/06/05 11:05:42;;;;;;;1.60;1.50;;;28.80;26.90;;;;;;5013715;28;20230;-87
2021/06/05 11:08:43;;;;;;;1.60;1.50;;;28.80;30.00;;;;;;5020048;28;20206;-87
2021/06/05 11:11:48;;;;;;;3.97;2.20;;;29.20;29.50;;;;;;5014076;28;20561;-89
2021/06/05 11:14:42;;;;;;;4.63;2.38;;;29.00;28.20;;;;;;5014961;28;20201;-88
2021/06/05 11:17:26;;;;;;;2.38;1.30;;;28.80;29.30;;;;;;5007229;28;20278;-88
2021/06/05 11:20:14;;;;;;;2.05;1.45;;;28.90;29.10;;;;;;5027351;28;20701;-87
2021/06/05 11:23:13;;;;;;;2.17;1.30;;;28.60;30.20;;;;;;5030435;28;20663;-87
2021/06/05 11:25:44;;;;;;;2.88;1.48;;;28.30;29.00;;;;;;5023344;28;20229;-87
2021/06/05 11:28:45;;;;;;;2.83;1.70;;;28.30;33.10;;;;;;5026265;28;20194;-87
2021/06/05 11:31:47;;;;;;;2.90;1.70;;;28.50;31.90;;;;;;5009692;28;20229;-87
2021/06/05 11:34:55;;;;;;;2.42;1.70;;;28.70;31.20;;;;;;5016818;28;20261;-87
2021/06/05 11:37:54;;;;;;;1.73;1.50;;;28.30;30.90;;;;;;5020935;28;20203;-86
2021/06/05 11:40:49;;;;;;;1.40;1.30;;;27.80;30.90;;;;;;5012323;28;20235;-87
2021/06/05 11:43:38;;;;;;;4.22;1.63;;;26.90;33.00;;;;;;5024842;28;20199;-86
2021/06/05 11:46:09;;;;;;;1.60;1.42;;;26.50;37.20;;;;;;5033597;28;20694;-83
2021/06/05 11:48:54;;;;;;;1.58;1.48;;;26.90;37.40;;;;;;5029370;28;20262;-84
2021/06/05 11:51:36;;;;;;;3.70;1.73;;;27.20;34.80;;;;;;5027439;28;20233;-86
2021/06/05 11:54:18;;;;;;;3.22;1.60;;;27.30;35.30;;;;;;5021261;28;20230;-86
2021/06/05 11:56:48;;;;;;;4.10;1.80;;;27.00;34.20;;;;;;5029060;28;20214;-86
2021/06/05 11:59:23;;;;;;;2.13;1.60;;;26.70;35.50;;;;;;5022270;28;20230;-86
2021/06/05 12:01:51;;;;;;;4.97;1.40;;;26.50;37.20;;;;;;5022091;28;20667;-85
2021/06/05 12:04:22;;;;;;;4.25;1.60;;;26.10;37.00;;;;;;5027144;28;20215;-84
2021/06/05 12:06:50;;;;;;;1.63;1.52;;;25.80;36.70;;;;;;5016997;28;20218;-85
2021/06/05 12:09:19;;;;;;;3.08;1.90;;;25.40;36.70;;;;;;5017001;28;20203;-86
2021/06/05 12:11:50;;;;;;;3.30;1.70;;;25.30;38.90;;;;;;5023762;28;20286;-86
2021/06/05 12:14:35;;;;;;;2.25;1.70;;;25.40;38.00;;;;;;5027486;28;20211;-88
2021/06/05 12:17:03;;;;;;;1.73;1.30;;;25.30;38.10;;;;;;5023665;28;20199;-85
2021/06/05 12:19:33;;;;;;;2.65;1.40;;;25.10;36.20;;;;;;5029632;28;20309;-86
2021/06/05 12:22:15;;;;;;;4.40;1.55;;;25.10;36.30;;;;;;5028163;28;20208;-85
2021/06/05 12:24:47;;;;;;;2.15;1.50;;;25.20;36.30;;;;;;5026144;28;20233;-84
2021/06/05 12:27:24;;;;;;;2.13;1.48;;;25.50;36.50;;;;;;5029997;28;20195;-87
2021/06/05 12:29:51;;;;;;;1.40;1.20;;;25.50;36.50;;;;;;5030517;28;20230;-89
2021/06/05 12:32:27;;;;;;;1.65;1.20;;;25.60;36.20;;;;;;5033048;28;20242;-86
2021/06/05 12:34:55;;;;;;;2.10;1.50;;;25.40;36.40;;;;;;5020165;28;20218;-85
2021/06/05 12:37:25;;;;;;;1.80;1.30;;;25.50;36.50;;;;;;5025685;28;20203;-85
2021/06/05 12:39:54;;;;;;;1.75;1.50;;;25.60;36.60;;;;;;5021653;28;20258;-86
2021/06/05 12:42:27;;;;;;;1.75;1.40;;;25.70;36.60;;;;;;5023069;28;20203;-83
2021/06/05 12:44:57;;;;;;;1.38;1.27;;;25.80;34.90;;;;;;5026326;28;20230;-85
2021/06/05 12:47:30;;;;;;;1.48;1.30;;;25.70;35.40;;;;;;5024750;28;20271;-83
2021/06/05 12:49:58;;;;;;;1.98;1.38;;;25.70;36.70;;;;;;5022843;28;20338;-84
2021/06/05 12:52:28;;;;;;;2.25;1.30;;;25.40;36.50;;;;;;5018078;28;20207;-85
2021/06/05 12:55:13;;;;;;;3.80;1.50;;;25.40;36.40;;;;;;5014542;28;20231;-85
2021/06/05 12:57:42;;;;;;;2.33;1.20;;;25.10;36.30;;;;;;5008858;28;20199;-84
2021/06/05 13:00:17;;;;;;;2.03;1.40;;;25.10;36.30;;;;;;5006341;28;20223;-86
2021/06/05 13:02:48;;;;;;;2.67;1.42;;;25.00;37.40;;;;;;5005765;28;20462;-88